createdAt,value
2019-01-25T00:02:01.927Z,100467.38
2019-01-25T00:07:04.389Z,100472.33
2019-01-25T00:12:06.877Z,100473.75
2019-01-25T00:17:09.405Z,100473.68
2019-01-25T00:22:11.789Z,100477.86
2019-01-25T00:27:14.250Z,100479.88
2019-01-25T00:32:16.711Z,100480.78
2019-01-25T00:37:19.178Z,100478.39
2019-01-25T00:42:21.636Z,100480.02
2019-01-25T00:47:24.097Z,100477.45
2019-01-25T00:52:26.556Z,100470.88
2019-01-25T00:57:29.014Z,100476.41
2019-01-25T01:02:31.476Z,100477.45
2019-01-25T01:07:33.930Z,100492.02
2019-01-25T01:12:36.375Z,100493.19
2019-01-25T01:17:38.838Z,100501.63
2019-01-25T01:22:41.321Z,100506.69
2019-01-25T01:27:43.870Z,100505.13
2019-01-25T01:32:46.343Z,100513.69
2019-01-25T01:37:48.801Z,100516.41
2019-01-25T01:42:51.253Z,100519.98
2019-01-25T01:47:53.709Z,100516.77
2019-01-25T01:52:56.186Z,100525.48
2019-01-25T01:57:58.648Z,100517.28
2019-01-25T02:03:01.114Z,100529.88
2019-01-25T02:08:03.576Z,100523.03
2019-01-25T02:13:06.055Z,100527.42
2019-01-25T02:18:08.512Z,100523.84
2019-01-25T02:23:10.979Z,100521.55
2019-01-25T02:28:13.444Z,100509.11
2019-01-25T02:33:15.906Z,100519.11
2019-01-25T02:38:18.368Z,100514.72
2019-01-25T02:43:20.837Z,100512.38
2019-01-25T02:48:23.302Z,100521.05
2019-01-25T02:53:25.741Z,100515.89
2019-01-25T02:58:28.190Z,100516.53
2019-01-25T03:03:30.696Z,100515.11
2019-01-25T03:08:33.149Z,100518.40
2019-01-25T03:13:35.617Z,100522.62
2019-01-25T03:18:38.071Z,100516.94
2019-01-25T03:23:40.531Z,100508.64
2019-01-25T03:28:42.990Z,100514.78
2019-01-25T03:33:45.448Z,100530.69
2019-01-25T03:38:47.913Z,100534.07
2019-01-25T03:43:50.363Z,100526.17
2019-01-25T03:48:52.830Z,100533.61
2019-01-25T03:53:55.311Z,100528.94
2019-01-25T03:58:57.772Z,100542.20
2019-01-25T04:04:00.243Z,100542.37
2019-01-25T04:09:02.707Z,100536.48
2019-01-25T04:14:05.167Z,100532.17
2019-01-25T04:19:07.639Z,100541.45
2019-01-25T04:24:10.105Z,100545.44
2019-01-25T04:29:12.563Z,100546.44
2019-01-25T04:34:15.024Z,100552.33
2019-01-25T04:39:17.482Z,100553.09
2019-01-25T04:44:19.953Z,100552.03
2019-01-25T04:49:22.414Z,100547.48
2019-01-25T04:54:24.895Z,100547.72
2019-01-25T04:59:27.360Z,100540.58
2019-01-25T05:04:29.846Z,100537.77
2019-01-25T05:09:32.317Z,100551.80
2019-01-25T05:14:34.827Z,100554.89
2019-01-25T05:19:40.248Z,100563.36
2019-01-25T05:24:42.719Z,100565.03
2019-01-25T05:29:48.144Z,100576.94
2019-01-25T05:34:50.612Z,100577.11
2019-01-25T05:39:53.084Z,100571.42
2019-01-25T05:44:55.567Z,100565.24
2019-01-25T05:49:58.027Z,100567.84
2019-01-25T05:55:00.526Z,100574.12
2019-01-25T06:00:03.001Z,100578.36
2019-01-25T06:05:05.490Z,100588.77
2019-01-25T06:10:07.980Z,100582.78
2019-01-25T06:15:10.457Z,100581.80
2019-01-25T06:20:12.915Z,100578.05
2019-01-25T06:25:15.386Z,100578.36
2019-01-25T06:30:17.858Z,100584.56
2019-01-25T06:35:20.320Z,100595.39
2019-01-25T06:40:22.794Z,100610.21
2019-01-25T06:45:25.264Z,100619.34
2019-01-25T06:50:27.716Z,100613.95
2019-01-25T06:55:30.198Z,100622.75
2019-01-25T07:00:50.818Z,100630.13
2019-01-25T07:05:53.370Z,100632.67
2019-01-25T07:10:55.841Z,100632.86
2019-01-25T07:15:58.302Z,100638.83
2019-01-25T07:21:00.786Z,100638.56
2019-01-25T07:26:03.460Z,100648.80
2019-01-25T07:31:05.951Z,100658.40
2019-01-25T07:36:08.416Z,100660.02
2019-01-25T07:41:10.905Z,100653.94
2019-01-25T07:46:13.428Z,100651.32
2019-01-25T07:51:15.880Z,100655.82
2019-01-25T07:56:18.344Z,100659.67
2019-01-25T08:01:20.801Z,100662.64
2019-01-25T08:06:23.239Z,100662.62
2019-01-25T08:11:25.705Z,100669.42
2019-01-25T08:16:28.180Z,100673.25
2019-01-25T08:21:30.624Z,100674.19
2019-01-25T08:26:33.101Z,100676.67
2019-01-25T08:31:35.553Z,100667.68
2019-01-25T08:36:38.196Z,100683.05
2019-01-25T08:41:40.512Z,100681.25
2019-01-25T08:46:43.055Z,100670.16
2019-01-25T08:51:45.518Z,100677.30
2019-01-25T08:56:47.999Z,100683.23
2019-01-25T09:01:50.463Z,100694.98
2019-01-25T09:06:52.930Z,100690.45
2019-01-25T09:11:55.394Z,100690.15
2019-01-25T09:16:57.856Z,100691.86
2019-01-25T09:22:00.349Z,100694.98
2019-01-25T09:27:02.801Z,100698.73
2019-01-25T09:32:05.283Z,100708.98
2019-01-25T09:37:07.790Z,100718.01
2019-01-25T09:42:10.261Z,100724.72
2019-01-25T09:47:12.728Z,100728.52
2019-01-25T09:52:15.220Z,100731.41
2019-01-25T09:57:17.702Z,100723.30
2019-01-25T10:02:20.190Z,100728.33
2019-01-25T10:07:22.718Z,100740.16
2019-01-25T10:12:25.208Z,100727.86
2019-01-25T10:17:27.749Z,100722.78
2019-01-25T10:22:30.244Z,100716.81
2019-01-25T10:27:32.707Z,100712.02
2019-01-25T10:32:35.174Z,100710.80
2019-01-25T10:37:37.623Z,100718.51
2019-01-25T10:42:45.496Z,100721.17
2019-01-25T10:47:42.557Z,100711.85
2019-01-25T10:52:45.015Z,100706.88
2019-01-25T10:57:47.495Z,100716.61
2019-01-25T11:02:57.633Z,100715.95
2019-01-25T11:07:52.428Z,100709.58
2019-01-25T11:13:00.731Z,100706.44
2019-01-25T11:17:57.362Z,100699.27
2019-01-25T11:22:59.813Z,100697.39
2019-01-25T11:28:02.277Z,100696.48
2019-01-25T11:33:04.772Z,100693.86
2019-01-25T11:38:07.244Z,100699.81
2019-01-25T11:43:09.723Z,100691.80
2019-01-25T11:48:12.190Z,100693.17
2019-01-25T11:53:14.660Z,100691.36
2019-01-25T11:58:17.131Z,100697.52
2019-01-25T12:03:19.609Z,100693.21
2019-01-25T12:08:22.098Z,100686.80
2019-01-25T12:13:24.562Z,100688.52
2019-01-25T12:18:27.072Z,100689.20
2019-01-25T12:23:29.504Z,100689.32
2019-01-25T12:28:31.956Z,100687.34
2019-01-25T12:33:34.404Z,100691.86
2019-01-25T12:38:36.864Z,100691.13
2019-01-25T12:43:39.321Z,100687.95
2019-01-25T12:48:41.788Z,100697.72
2019-01-25T12:53:44.273Z,100698.73
2019-01-25T12:58:46.771Z,100690.57
2019-01-25T13:03:49.238Z,100685.98
2019-01-25T13:08:51.725Z,100692.21
2019-01-25T13:13:54.173Z,100688.47
2019-01-25T13:18:56.646Z,100679.73
2019-01-25T13:23:59.125Z,100673.27
2019-01-25T13:29:01.592Z,100677.28
2019-01-25T13:34:04.095Z,100671.87
2019-01-25T13:39:06.528Z,100665.11
2019-01-25T13:44:08.983Z,100676.44
2019-01-25T13:49:11.469Z,100680.81
2019-01-25T13:54:13.934Z,100683.96
2019-01-25T13:59:16.426Z,100693.51
2019-01-25T14:04:18.877Z,100699.42
2019-01-25T14:09:21.403Z,100695.25
2019-01-25T14:14:23.876Z,100685.34
2019-01-25T14:19:26.353Z,100675.77
2019-01-25T14:24:28.876Z,100685.02
2019-01-25T14:29:31.352Z,100684.84
2019-01-25T14:34:33.827Z,100681.97
2019-01-25T14:39:36.274Z,100692.26
2019-01-25T14:44:38.747Z,100707.77
2019-01-25T14:49:41.202Z,100694.23
2019-01-25T14:54:43.675Z,100698.52
2019-01-25T14:59:46.226Z,100695.07
2019-01-25T15:04:48.696Z,100684.72
2019-01-25T15:09:51.172Z,100688.36
2019-01-25T15:14:53.709Z,100698.62
2019-01-25T15:19:56.169Z,100697.47
2019-01-25T15:24:58.629Z,100683.46
2019-01-25T15:30:01.104Z,100692.20
2019-01-25T15:35:03.609Z,100685.23
2019-01-25T15:40:06.091Z,100687.65
2019-01-25T15:45:11.513Z,100692.66
2019-01-25T15:50:22.958Z,100693.44
2019-01-25T15:55:25.413Z,100701.13
2019-01-25T16:00:27.904Z,100716.73
2019-01-25T16:05:30.366Z,100690.83
2019-01-25T16:10:32.833Z,100697.98
2019-01-25T16:15:35.303Z,100695.02
2019-01-25T16:20:37.779Z,100703.24
2019-01-25T16:25:40.259Z,100700.06
2019-01-25T16:30:42.791Z,100694.16
2019-01-25T16:35:45.262Z,100703.17
2019-01-25T16:40:47.862Z,100722.21
2019-01-25T16:45:50.354Z,100714.52
2019-01-25T16:50:52.855Z,100724.52
2019-01-25T16:55:55.326Z,100722.89
2019-01-25T17:00:57.835Z,100724.94
2019-01-25T17:06:00.312Z,100726.41
2019-01-25T17:11:02.806Z,100729.81
2019-01-25T17:16:05.275Z,100727.64
2019-01-25T17:21:07.778Z,100723.97
2019-01-25T17:26:10.300Z,100709.00
2019-01-25T17:31:12.836Z,100708.91
2019-01-25T17:36:15.326Z,100705.97
2019-01-25T17:41:17.865Z,100715.16
2019-01-25T17:46:20.351Z,100708.50
2019-01-25T17:51:22.921Z,100721.61
2019-01-25T17:56:25.401Z,100711.64
2019-01-25T18:01:27.884Z,100707.84
2019-01-25T18:06:30.394Z,100690.59
2019-01-25T18:11:32.865Z,100709.72
2019-01-25T18:16:35.332Z,100713.66
2019-01-25T18:21:37.785Z,100718.02
2019-01-25T18:26:40.254Z,100712.70
2019-01-25T18:31:43.057Z,100702.10
2019-01-25T18:36:45.533Z,100692.13
2019-01-25T18:41:48.019Z,100696.60
2019-01-25T18:46:50.503Z,100706.25
2019-01-25T18:51:53.001Z,100688.05
2019-01-25T18:56:55.476Z,100676.52
2019-01-25T19:01:57.978Z,100670.87
2019-01-25T19:07:00.438Z,100678.30
2019-01-25T19:12:02.920Z,100679.01
2019-01-25T19:17:05.381Z,100669.33
2019-01-25T19:22:07.878Z,100657.77
2019-01-25T19:27:12.109Z,100654.31
2019-01-25T19:32:12.811Z,100648.29
2019-01-25T19:37:15.306Z,100660.03
2019-01-25T19:42:19.017Z,100664.34
2019-01-25T19:47:21.498Z,100666.75
2019-01-25T19:52:23.978Z,100658.58
2019-01-25T19:57:26.467Z,100679.03
2019-01-25T20:02:28.939Z,100677.27
2019-01-25T20:07:31.402Z,100674.48
2019-01-25T20:12:33.887Z,100676.36
2019-01-25T20:17:36.379Z,100668.45
2019-01-25T20:22:38.875Z,100658.44
2019-01-25T20:27:41.315Z,100646.02
2019-01-25T20:32:43.780Z,100639.89
2019-01-25T20:37:46.259Z,100641.73
2019-01-25T20:42:48.718Z,100645.88
2019-01-25T20:47:51.199Z,100637.91
2019-01-25T20:52:53.654Z,100630.57
2019-01-25T20:57:56.125Z,100634.22
2019-01-25T21:02:58.594Z,100629.11
2019-01-25T21:08:01.044Z,100640.86
2019-01-25T21:13:05.308Z,100642.08
2019-01-25T21:18:05.975Z,100637.13
2019-01-25T21:23:08.480Z,100633.64
2019-01-25T21:28:10.987Z,100621.53
2019-01-25T21:33:13.804Z,100615.63
2019-01-25T21:38:16.270Z,100613.93
2019-01-25T21:43:18.750Z,100605.11
2019-01-25T21:48:21.232Z,100608.94
2019-01-25T21:53:23.731Z,100596.58
2019-01-25T21:58:26.220Z,100591.17
2019-01-25T22:03:28.676Z,100587.81
2019-01-25T22:08:31.141Z,100584.02
2019-01-25T22:13:33.834Z,100567.45
2019-01-25T22:18:36.295Z,100568.14
2019-01-25T22:23:38.799Z,100557.34
2019-01-25T22:28:41.271Z,100553.94
2019-01-25T22:33:43.745Z,100538.20
2019-01-25T22:38:46.394Z,100531.34
2019-01-25T22:43:48.906Z,100532.70
2019-01-25T22:48:51.372Z,100524.75
2019-01-25T22:53:53.928Z,100528.00
2019-01-25T22:58:56.369Z,100528.41
2019-01-25T23:04:04.842Z,100525.18
2019-01-25T23:09:16.359Z,100530.73
2019-01-25T23:14:18.845Z,100525.01
2019-01-25T23:19:21.294Z,100523.34
2019-01-25T23:24:23.750Z,100520.72
2019-01-25T23:29:26.211Z,100518.48
2019-01-25T23:34:28.705Z,100515.78
2019-01-25T23:39:31.201Z,100511.72
2019-01-25T23:44:33.691Z,100521.28
2019-01-25T23:49:36.163Z,100523.09
2019-01-25T23:54:38.624Z,100514.36
2019-01-25T23:59:41.095Z,100499.48
